Time;durP1;ratioP1;P1;durP2;ratioP2;P2;SDS_P1;SDS_P2;PMS_P1;PMS_P2;Temp;Humidity;BMP_temperature;BMP_pressure;BME280_temperature;BME280_humidity;BME280_pressure;Samples;Min_cycle;Max_cycle;Signal;HPM_P1;HPM_P2
2023/08/16 00:01:46;;;;;;;11.10;10.00;;;;;;;23.70;74.18;100433.44;107933;1257;69079;-79
2023/08/16 00:04:14;;;;;;;14.20;9.40;;;;;;;23.76;74.27;100436.52;107135;1254;71623;-80
2023/08/16 00:06:42;;;;;;;12.30;9.30;;;;;;;23.82;73.98;100433.77;106847;1254;60546;-79
2023/08/16 00:09:10;;;;;;;13.30;9.50;;;;;;;23.83;73.84;100436.63;106943;1254;60303;-83
2023/08/16 00:11:37;;;;;;;14.80;10.10;;;;;;;23.83;73.62;100436.56;106604;1254;73970;-84
2023/08/16 00:14:05;;;;;;;13.60;10.90;;;;;;;23.78;73.96;100438.35;106179;1256;69271;-82
2023/08/16 00:16:32;;;;;;;12.60;10.80;;;;;;;23.68;74.51;100438.02;106156;1254;72279;-84
2023/08/16 00:19:00;;;;;;;13.30;10.20;;;;;;;23.61;74.75;100440.66;106240;1254;60469;-83
2023/08/16 00:21:28;;;;;;;13.90;10.20;;;;;;;23.61;74.82;100440.77;106811;1254;60584;-83
2023/08/16 00:23:55;;;;;;;17.20;11.20;;;;;;;23.60;74.77;100439.17;106228;1253;73110;-85
2023/08/16 00:26:23;;;;;;;13.60;10.40;;;;;;;23.57;74.84;100441.56;106703;1254;69259;-81
2023/08/16 00:28:51;;;;;;;15.90;11.00;;;;;;;23.53;74.94;100443.90;106695;1254;71369;-84
2023/08/16 00:31:19;;;;;;;13.70;11.00;;;;;;;23.49;75.20;100446.59;106254;1254;60476;-85
2023/08/16 00:33:47;;;;;;;15.50;10.80;;;;;;;23.49;75.11;100445.35;107929;1254;60296;-84
2023/08/16 00:36:14;;;;;;;13.00;10.70;;;;;;;23.49;75.31;100447.77;108508;1253;72546;-82
2023/08/16 00:38:44;;;;;;;14.30;10.60;;;;;;;23.52;75.51;100442.33;107336;1253;68703;-84
2023/08/16 00:41:12;;;;;;;11.40;10.20;;;;;;;23.54;75.44;100443.00;106257;1254;72656;-83
2023/08/16 00:43:39;;;;;;;11.90;10.50;;;;;;;23.48;75.37;100444.77;106308;1257;60417;-82
2023/08/16 00:46:11;;;;;;;13.00;11.60;;;;;;;23.37;75.86;100447.52;107010;1253;60506;-85
2023/08/16 00:48:42;;;;;;;23.10;12.00;;;;;;;23.30;76.44;100451.86;108796;1256;72608;-82
2023/08/16 00:51:10;;;;;;;12.40;11.10;;;;;;;23.24;76.68;100453.98;106921;1254;69639;-84
2023/08/16 00:53:37;;;;;;;13.80;11.40;;;;;;;23.21;76.92;100453.26;106246;1258;71957;-82
2023/08/16 00:56:05;;;;;;;12.40;11.00;;;;;;;23.26;77.06;100455.33;105732;1253;60518;-81
2023/08/16 00:58:34;;;;;;;14.30;10.60;;;;;;;23.33;76.76;100456.09;105911;1254;60445;-81
2023/08/16 01:01:01;;;;;;;15.90;11.60;;;;;;;23.33;76.88;100455.71;105927;1253;72685;-81
2023/08/16 01:03:29;;;;;;;14.40;11.10;;;;;;;23.32;77.14;100459.27;106141;1254;70691;-82
2023/08/16 01:05:57;;;;;;;15.10;11.10;;;;;;;23.27;77.29;100458.39;106210;1253;72666;-79
2023/08/16 01:08:24;;;;;;;12.80;11.30;;;;;;;23.24;77.44;100460.79;106318;1253;61643;-81
2023/08/16 01:10:58;;;;;;;17.70;10.40;;;;;;;23.27;77.27;100458.60;107581;1253;60436;-79
2023/08/16 01:13:50;;;;;;;16.30;11.70;;;;;;;23.33;77.59;100459.23;108997;1253;73945;-81
2023/08/16 01:16:18;;;;;;;18.10;11.80;;;;;;;23.31;77.06;100459.67;108273;1253;68701;-84
2023/08/16 01:18:46;;;;;;;13.10;11.50;;;;;;;23.27;77.25;100459.78;106315;1259;71478;-81
2023/08/16 01:21:13;;;;;;;15.90;11.30;;;;;;;23.24;77.62;100458.59;106452;1253;60515;-81
2023/08/16 01:23:46;;;;;;;16.90;11.40;;;;;;;23.19;77.55;100457.26;106386;1253;60864;-81
2023/08/16 01:26:16;;;;;;;16.10;11.60;;;;;;;23.17;77.69;100461.23;106120;1253;72575;-82
2023/08/16 01:28:44;;;;;;;13.80;11.30;;;;;;;23.15;77.79;100461.28;106072;1254;70988;-83
2023/08/16 01:31:11;;;;;;;16.20;11.70;;;;;;;23.07;78.13;100461.70;107777;1257;71429;-81
2023/08/16 01:33:40;;;;;;;14.40;12.00;;;;;;;23.00;78.63;100460.62;107985;1253;59990;-78
2023/08/16 01:36:08;;;;;;;13.80;12.40;;;;;;;22.94;78.95;100462.15;108220;1253;60231;-81
2023/08/16 01:38:35;;;;;;;21.10;13.00;;;;;;;22.88;79.36;100461.46;107755;1253;75074;-81
2023/08/16 01:41:26;;;;;;;14.00;11.50;;;;;;;22.91;79.55;100456.33;106059;1257;68382;-83
2023/08/16 01:43:55;;;;;;;14.60;11.90;;;;;;;22.95;79.42;100459.90;105847;1253;72723;-82
2023/08/16 01:46:23;;;;;;;14.30;12.70;;;;;;;22.92;79.61;100460.04;105963;1257;60534;-84
2023/08/16 01:48:51;;;;;;;16.00;13.50;;;;;;;22.86;79.80;100456.10;105507;1253;302460;-78
2023/08/16 01:52:44;;;;;;;17.20;13.10;;;;;;;22.84;79.99;100451.81;103105;1291;600233;-79
2023/08/16 01:55:11;;;;;;;15.30;13.30;;;;;;;22.83;79.94;100448.99;104805;1266;60431;-78
2023/08/16 01:57:40;;;;;;;14.60;13.20;;;;;;;22.84;79.82;100446.44;104943;1272;59305;-78
2023/08/16 02:00:09;;;;;;;15.60;13.90;;;;;;;22.75;80.18;100451.54;104837;1266;72261;-81
2023/08/16 02:02:42;;;;;;;19.00;14.00;;;;;;;22.64;80.51;100451.08;105012;1266;70621;-81
2023/08/16 02:05:10;;;;;;;17.00;13.70;;;;;;;22.58;80.90;100447.52;104891;1270;72680;-82
2023/08/16 02:07:37;;;;;;;18.00;14.60;;;;;;;22.59;81.01;100448.90;104810;1270;60786;-81
2023/08/16 02:10:05;;;;;;;15.20;13.70;;;;;;;22.66;80.86;100450.17;105018;1265;59373;-83
2023/08/16 02:12:33;;;;;;;17.00;14.20;;;;;;;22.73;80.68;100449.23;105869;1266;72533;-81
2023/08/16 02:15:01;;;;;;;20.10;14.00;;;;;;;22.75;80.69;100454.16;108291;1264;68811;-84
2023/08/16 02:17:29;;;;;;;19.10;14.60;;;;;;;22.75;80.48;100457.08;106793;1259;72770;-81
2023/08/16 02:19:56;;;;;;;16.60;14.60;;;;;;;22.76;80.63;100454.51;106038;1264;59613;-84
2023/08/16 02:22:25;;;;;;;19.10;14.10;;;;;;;22.78;80.30;100458.81;105969;1263;60052;-82
2023/08/16 02:25:08;;;;;;;;;;;;;;;22.82;80.26;100454.14;107242;1262;73072;-82
2023/08/16 02:27:36;;;;;;;16.40;13.10;;;;;;;22.81;80.38;100458.94;108865;1255;68821;-84
2023/08/16 02:30:04;;;;;;;16.10;14.40;;;;;;;22.74;80.58;100460.84;108570;1257;72235;-83
2023/08/16 02:32:33;;;;;;;15.80;14.00;;;;;;;22.67;80.81;100454.70;107322;1263;59671;-84
2023/08/16 02:35:01;;;;;;;17.30;15.60;;;;;;;22.63;81.28;100460.55;107126;1258;59004;-82
2023/08/16 02:37:30;;;;;;;16.00;14.30;;;;;;;22.60;81.56;100458.13;107790;1258;73110;-81
2023/08/16 02:39:57;;;;;;;16.60;14.70;;;;;;;22.62;81.24;100463.93;106832;1259;68795;-84
2023/08/16 02:42:24;;;;;;;18.30;15.50;;;;;;;22.62;81.16;100462.19;105674;1263;71972;-85
2023/08/16 02:44:52;;;;;;;18.10;14.70;;;;;;;22.55;81.41;100465.32;105550;1258;60243;-85
2023/08/16 02:47:19;;;;;;;16.70;14.90;;;;;;;22.48;81.83;100469.17;105599;1258;60045;-84
2023/08/16 02:49:47;;;;;;;18.20;16.10;;;;;;;22.43;82.03;100472.57;105699;1257;71846;-83
2023/08/16 02:52:15;;;;;;;16.30;14.60;;;;;;;22.42;82.13;100472.91;105611;1259;69923;-82
2023/08/16 02:54:42;;;;;;;15.80;14.20;;;;;;;22.48;82.13;100473.14;105771;1257;72969;-81
2023/08/16 02:57:09;;;;;;;16.00;14.30;;;;;;;22.55;82.04;100474.30;107878;1258;60616;-81
2023/08/16 02:59:41;;;;;;;16.10;14.50;;;;;;;22.52;82.00;100480.30;107604;1259;59680;-84
2023/08/16 03:02:08;;;;;;;17.20;15.50;;;;;;;22.49;82.26;100479.11;105922;1257;73112;-83
2023/08/16 03:04:39;;;;;;;26.50;22.00;;;;;;;22.39;82.26;100483.73;105759;1257;68319;-84
2023/08/16 03:07:08;;;;;;;17.00;14.90;;;;;;;22.31;82.45;100481.70;105637;1264;72655;-84
2023/08/16 03:09:35;;;;;;;16.00;14.40;;;;;;;22.35;82.42;100485.95;105734;1259;61668;-84
2023/08/16 03:12:03;;;;;;;15.80;14.00;;;;;;;22.38;82.47;100490.15;105857;1263;60036;-87
2023/08/16 03:14:31;;;;;;;16.70;15.00;;;;;;;22.40;82.66;100486.17;105949;1259;72969;-86
2023/08/16 03:16:58;;;;;;;17.10;15.30;;;;;;;22.41;82.87;100486.58;105607;1264;68894;-84
2023/08/16 03:19:26;;;;;;;22.20;15.70;;;;;;;22.41;82.78;100483.00;105524;1260;71384;-82
2023/08/16 03:21:54;;;;;;;17.10;15.40;;;;;;;22.43;82.79;100484.31;105445;1259;61349;-82
2023/08/16 03:24:22;;;;;;;18.00;15.60;;;;;;;22.50;82.51;100482.46;105922;1262;59549;-88
2023/08/16 03:26:50;;;;;;;22.70;15.70;;;;;;;22.55;82.39;100485.64;106147;1260;72039;-85
2023/08/16 03:29:18;;;;;;;16.90;15.10;;;;;;;22.55;82.42;100487.52;106439;1257;69045;-87
2023/08/16 03:31:46;;;;;;;18.90;16.20;;;;;;;22.54;82.61;100490.32;106194;1259;71414;-86
2023/08/16 03:34:14;;;;;;;19.80;16.80;;;;;;;22.53;82.61;100493.33;106321;1261;60038;-87
2023/08/16 03:36:42;;;;;;;20.60;15.70;;;;;;;22.57;82.58;100490.61;108494;1259;59167;-87
2023/08/16 03:39:11;;;;;;;17.00;15.20;;;;;;;22.66;82.53;100489.99;108701;1259;71615;-88
2023/08/16 03:41:38;;;;;;;16.50;14.80;;;;;;;22.77;82.43;100490.75;109057;1259;68994;-85
2023/08/16 03:44:06;;;;;;;17.00;15.20;;;;;;;22.85;82.20;100495.73;109050;1259;71415;-84
2023/08/16 03:46:34;;;;;;;21.80;16.60;;;;;;;22.90;81.92;100496.31;108475;1259;59488;-85
2023/08/16 03:49:03;;;;;;;18.80;15.30;;;;;;;22.96;82.08;100493.69;107147;1257;59674;-84
2023/08/16 03:51:31;;;;;;;17.30;15.00;;;;;;;23.05;81.38;100490.20;106400;1265;72429;-83
2023/08/16 03:53:58;;;;;;;17.20;14.90;;;;;;;23.09;81.15;100491.98;106209;1263;69164;-83
2023/08/16 03:56:26;;;;;;;18.00;15.30;;;;;;;23.04;81.24;100489.45;105888;1259;72665;-83
2023/08/16 03:58:54;;;;;;;17.50;15.70;;;;;;;22.99;81.49;100499.19;105690;1259;59615;-84
2023/08/16 04:01:22;;;;;;;17.60;15.90;;;;;;;22.96;81.82;100499.42;105656;1263;60004;-82
2023/08/16 04:03:50;;;;;;;17.40;15.50;;;;;;;22.95;81.89;100499.77;105966;1259;73068;-85
2023/08/16 04:06:20;;;;;;;15.50;13.90;;;;;;;23.04;81.85;100502.30;105592;1265;68911;-83
2023/08/16 04:08:48;;;;;;;18.00;15.90;;;;;;;23.18;81.84;100503.02;108230;1258;71438;-81
2023/08/16 04:11:15;;;;;;;17.30;15.60;;;;;;;23.31;81.95;100504.02;108602;1259;58793;-82
2023/08/16 04:13:43;;;;;;;17.00;15.40;;;;;;;23.42;81.26;100507.52;109054;1258;59537;-80
2023/08/16 04:16:12;;;;;;;17.20;15.30;;;;;;;23.49;80.96;100509.71;106739;1263;71706;-81
2023/08/16 04:18:39;;;;;;;22.50;15.20;;;;;;;23.58;80.93;100509.43;106172;1257;70077;-82
2023/08/16 04:21:07;;;;;;;15.60;14.10;;;;;;;23.73;80.32;100510.55;106455;1261;72680;-81
2023/08/16 04:23:34;;;;;;;16.80;15.00;;;;;;;23.84;79.75;100509.46;108124;1257;59234;-82
2023/08/16 04:26:02;;;;;;;18.50;16.00;;;;;;;23.88;79.60;100507.84;106514;1263;59986;-82
2023/08/16 04:28:32;;;;;;;17.80;16.00;;;;;;;23.91;79.44;100514.08;106370;1259;72363;-82
2023/08/16 04:31:00;;;;;;;17.40;15.70;;;;;;;23.93;79.35;100515.83;105716;1257;68409;-84
2023/08/16 04:33:27;;;;;;;17.30;15.70;;;;;;;23.94;79.09;100517.61;105482;1259;72666;-82
2023/08/16 04:35:56;;;;;;;17.90;14.90;;;;;;;24.02;78.78;100517.07;105751;1260;61729;-79
2023/08/16 04:38:24;;;;;;;16.60;14.90;;;;;;;24.11;78.48;100520.08;106508;1257;59609;-81
2023/08/16 04:40:53;;;;;;;18.00;16.00;;;;;;;24.14;78.34;100520.48;106833;1260;73032;-80
2023/08/16 04:43:20;;;;;;;17.70;16.10;;;;;;;24.15;77.94;100521.86;105756;1259;69285;-82
2023/08/16 04:45:48;;;;;;;17.80;16.10;;;;;;;24.19;77.57;100524.11;106058;1262;71130;-81
2023/08/16 04:48:16;;;;;;;17.60;15.80;;;;;;;24.26;77.28;100522.95;105893;1259;60522;-82
2023/08/16 04:50:44;;;;;;;17.20;15.40;;;;;;;24.34;77.14;100526.90;105856;1262;59514;-80
2023/08/16 04:53:12;;;;;;;17.20;15.00;;;;;;;24.46;76.93;100526.02;106480;1259;72200;-81
2023/08/16 04:55:42;;;;;;;19.30;15.90;;;;;;;24.59;76.57;100526.95;108668;1259;69043;-84
2023/08/16 04:58:10;;;;;;;17.60;15.60;;;;;;;24.66;76.13;100522.04;108417;1264;71503;-82
2023/08/16 05:00:44;;;;;;;21.10;16.80;;;;;;;24.71;75.93;100528.06;106995;1261;59403;-77
2023/08/16 05:03:11;;;;;;;18.70;16.70;;;;;;;24.75;75.81;100528.45;105944;1259;59748;-79
2023/08/16 05:05:39;;;;;;;21.10;16.80;;;;;;;24.80;75.67;100530.35;106367;1258;72839;-78
2023/08/16 05:08:08;;;;;;;16.60;14.50;;;;;;;24.85;75.39;100532.60;106927;1259;69081;-81
2023/08/16 05:10:36;;;;;;;21.40;15.30;;;;;;;24.97;75.13;100535.16;105695;1264;71403;-83
2023/08/16 05:13:04;;;;;;;17.10;15.30;;;;;;;25.08;74.49;100535.90;105495;1265;59530;-80
2023/08/16 05:15:31;;;;;;;20.10;15.30;;;;;;;25.11;74.23;100533.30;105416;1262;60090;-76
2023/08/16 05:17:58;;;;;;;19.20;15.50;;;;;;;25.15;73.90;100528.73;105374;1257;71849;-75
2023/08/16 05:20:27;;;;;;;20.80;15.50;;;;;;;25.19;73.51;100531.63;105694;1262;68731;-74
2023/08/16 05:22:54;;;;;;;22.60;16.30;;;;;;;25.21;73.44;100532.16;105065;1260;72782;-75
2023/08/16 05:25:22;;;;;;;17.40;15.50;;;;;;;25.23;73.46;100532.94;105261;1262;60080;-72
2023/08/16 05:27:49;;;;;;;18.90;14.20;;;;;;;25.27;73.39;100532.08;105652;1262;59977;-73
2023/08/16 05:30:17;;;;;;;16.90;14.10;;;;;;;25.39;73.10;100535.30;105013;1263;72988;-74
2023/08/16 05:32:44;;;;;;;16.50;14.00;;;;;;;25.50;73.20;100532.06;105197;1259;70103;-76
2023/08/16 05:35:12;;;;;;;18.00;14.30;;;;;;;25.54;72.78;100532.29;105042;1263;72704;-75
2023/08/16 05:37:40;;;;;;;17.80;14.60;;;;;;;25.58;72.90;100531.58;105746;1260;60093;-75
2023/08/16 05:40:09;;;;;;;16.00;14.40;;;;;;;25.63;72.52;100533.46;105549;1259;59550;-74
2023/08/16 05:42:36;;;;;;;17.50;14.80;;;;;;;25.69;72.49;100533.10;105550;1259;71784;-75
2023/08/16 05:45:05;;;;;;;16.50;14.80;;;;;;;25.76;72.54;100531.52;105589;1260;70108;-76
2023/08/16 05:47:32;;;;;;;17.30;13.40;;;;;;;25.81;72.49;100530.23;105328;1262;71896;-75
2023/08/16 05:50:00;;;;;;;17.70;13.70;;;;;;;25.90;72.00;100536.85;105066;1257;61781;-75
2023/08/16 05:52:27;;;;;;;23.70;14.60;;;;;;;25.98;71.72;100535.36;105282;1263;59995;-74
2023/08/16 05:54:55;;;;;;;18.40;14.80;;;;;;;26.03;71.63;100538.05;105157;1257;73014;-74
2023/08/16 05:57:22;;;;;;;18.00;14.10;;;;;;;26.08;71.48;100538.05;105108;1260;68787;-72
2023/08/16 05:59:50;;;;;;;16.70;15.10;;;;;;;26.14;71.03;100537.70;105205;1260;71131;-73
2023/08/16 06:02:17;;;;;;;18.10;15.10;;;;;;;26.17;70.76;100532.89;104983;1262;60616;-74
2023/08/16 06:04:45;;;;;;;17.70;15.00;;;;;;;26.19;70.48;100540.48;105129;1257;60444;-75
2023/08/16 06:07:12;;;;;;;20.90;15.80;;;;;;;26.20;70.52;100536.63;105033;1263;73825;-74
2023/08/16 06:09:40;;;;;;;21.00;15.20;;;;;;;26.21;70.27;100535.45;105345;1258;70242;-74
2023/08/16 06:12:07;;;;;;;20.20;15.50;;;;;;;26.19;70.37;100539.90;105374;1260;72642;-74
2023/08/16 06:14:35;;;;;;;17.90;14.10;;;;;;;26.26;70.38;100541.00;105412;1260;61791;-75
2023/08/16 06:17:05;;;;;;;20.80;15.60;;;;;;;26.36;70.42;100541.78;105392;1258;60529;-75
2023/08/16 06:19:33;;;;;;;23.40;15.50;;;;;;;26.41;70.07;100542.49;105371;1257;72895;-77
2023/08/16 06:22:01;;;;;;;19.40;15.50;;;;;;;26.46;69.97;100537.33;105486;1259;68617;-74
2023/08/16 06:24:33;;;;;;;20.70;15.00;;;;;;;26.51;70.16;100538.48;105502;1259;71840;-75
2023/08/16 06:27:00;;;;;;;19.20;14.60;;;;;;;26.58;69.99;100533.19;105358;1259;60459;-76
2023/08/16 06:29:28;;;;;;;17.90;14.90;;;;;;;26.65;69.98;100531.03;105598;1254;60450;-72
2023/08/16 06:31:56;;;;;;;24.90;15.10;;;;;;;26.75;69.61;100531.86;105409;1260;72584;-74
2023/08/16 06:34:24;;;;;;;17.70;14.80;;;;;;;26.90;69.33;100537.18;105362;1260;70451;-74
2023/08/16 06:36:53;;;;;;;17.30;14.70;;;;;;;27.02;68.96;100532.50;105404;1255;71832;-75
2023/08/16 06:39:20;;;;;;;18.50;15.00;;;;;;;27.13;68.91;100538.92;105394;1259;60466;-74
2023/08/16 06:41:48;;;;;;;17.70;15.60;;;;;;;27.23;68.31;100534.34;105257;1260;60347;-74
2023/08/16 06:44:15;;;;;;;16.50;14.90;;;;;;;27.32;67.37;100534.53;105335;1258;74294;-74
2023/08/16 06:46:43;;;;;;;16.30;14.70;;;;;;;27.40;66.43;100535.52;105299;1259;70794;-75
2023/08/16 06:49:10;;;;;;;18.60;14.30;;;;;;;27.44;65.93;100533.88;105395;1260;71288;-73
2023/08/16 06:51:38;;;;;;;15.90;14.20;;;;;;;27.47;65.91;100536.03;105379;1262;60450;-76
2023/08/16 06:54:05;;;;;;;15.90;13.80;;;;;;;27.50;65.56;100533.98;105824;1257;60438;-72
2023/08/16 06:56:33;;;;;;;15.40;13.30;;;;;;;27.53;65.41;100530.55;105612;1260;73059;-74
2023/08/16 06:59:00;;;;;;;15.50;13.10;;;;;;;27.57;65.07;100520.28;105442;1260;69941;-75
2023/08/16 07:01:28;;;;;;;15.50;13.60;;;;;;;27.62;65.11;100524.40;105400;1259;72424;-74
2023/08/16 07:03:55;;;;;;;14.00;12.60;;;;;;;27.69;65.51;100521.70;105374;1259;62012;-74
2023/08/16 07:06:23;;;;;;;14.50;12.40;;;;;;;27.76;65.52;100525.24;105784;1259;60351;-76
2023/08/16 07:08:51;;;;;;;14.90;12.60;;;;;;;27.79;65.40;100524.07;106373;1258;72629;-75
2023/08/16 07:11:18;;;;;;;17.60;13.30;;;;;;;27.81;65.42;100528.07;105886;1260;68813;-76
2023/08/16 07:13:47;;;;;;;15.70;12.30;;;;;;;27.83;65.41;100525.36;105790;1257;72454;-76
2023/08/16 07:16:16;;;;;;;17.70;12.80;;;;;;;27.87;65.65;100528.34;105988;1259;60604;-76
2023/08/16 07:18:44;;;;;;;14.60;11.80;;;;;;;27.94;65.31;100520.90;105749;1259;60455;-75
2023/08/16 07:21:11;;;;;;;13.00;11.70;;;;;;;27.99;65.09;100522.47;105698;1257;74300;-74
2023/08/16 07:23:38;;;;;;;14.60;12.00;;;;;;;28.05;64.89;100522.00;106084;1259;69089;-73
2023/08/16 07:26:06;;;;;;;12.50;11.40;;;;;;;28.12;64.66;100519.75;106033;1260;71235;-73
2023/08/16 07:28:33;;;;;;;12.10;11.00;;;;;;;28.15;64.17;100519.16;105716;1260;60445;-76
2023/08/16 07:31:01;;;;;;;10.00;8.60;;;;;;;28.19;63.52;100517.31;105575;1253;60523;-75
2023/08/16 07:33:30;;;;;;;9.30;8.30;;;;;;;28.22;62.63;100517.10;105731;1259;73916;-76
2023/08/16 07:36:01;;;;;;;9.40;7.80;;;;;;;28.26;62.41;100511.45;105660;1260;70776;-74
2023/08/16 07:38:30;;;;;;;8.50;7.70;;;;;;;28.33;61.69;100514.75;105428;1260;72466;-76
2023/08/16 07:40:58;;;;;;;9.00;8.10;;;;;;;28.39;61.16;100518.05;105767;1256;60565;-75
2023/08/16 07:43:25;;;;;;;12.10;8.90;;;;;;;28.46;61.11;100515.73;105905;1258;60606;-75
2023/08/16 07:45:52;;;;;;;12.40;9.00;;;;;;;28.54;60.68;100514.08;105799;1258;73849;-77
2023/08/16 07:48:20;;;;;;;13.90;9.50;;;;;;;28.61;60.71;100512.48;105295;1257;69980;-76
2023/08/16 07:50:51;;;;;;;12.90;9.30;;;;;;;28.70;60.69;100514.01;105490;1268;72705;-75
2023/08/16 07:53:18;;;;;;;10.80;9.30;;;;;;;28.77;60.54;100513.76;105882;1254;60525;-76
2023/08/16 07:55:46;;;;;;;10.40;9.40;;;;;;;28.87;59.90;100514.48;105891;1254;60440;-75
2023/08/16 07:58:15;;;;;;;11.80;10.00;;;;;;;28.94;59.82;100511.80;105573;1254;73805;-75
2023/08/16 08:00:46;;;;;;;12.50;9.50;;;;;;;29.01;59.81;100509.41;105300;1255;68166;-75
2023/08/16 08:03:13;;;;;;;10.60;9.50;;;;;;;29.08;59.26;100506.19;105335;1257;71389;-75
2023/08/16 08:05:41;;;;;;;11.80;9.40;;;;;;;29.15;59.27;100505.83;105391;1258;60848;-75
2023/08/16 08:08:11;;;;;;;9.60;8.70;;;;;;;29.24;59.09;100503.42;105277;1261;60402;-78
2023/08/16 08:10:42;;;;;;;9.60;8.70;;;;;;;29.32;58.89;100507.85;105388;1260;72466;-77
2023/08/16 08:13:10;;;;;;;10.70;8.60;;;;;;;29.38;58.18;100507.13;105796;1257;70798;-76
2023/08/16 08:15:38;;;;;;;10.40;9.20;;;;;;;29.43;57.60;100508.29;105732;1257;71488;-75
2023/08/16 08:18:05;;;;;;;9.60;8.70;;;;;;;29.51;57.45;100507.23;105197;1253;61025;-76
2023/08/16 08:20:33;;;;;;;11.00;8.80;;;;;;;29.60;57.44;100503.33;105427;1258;60436;-76
2023/08/16 08:23:00;;;;;;;10.30;7.40;;;;;;;29.73;56.91;100501.73;105365;1258;73988;-77
2023/08/16 08:25:29;;;;;;;10.50;8.40;;;;;;;29.85;56.37;100498.98;106679;1253;68680;-75
2023/08/16 08:27:58;;;;;;;10.30;8.50;;;;;;;29.94;55.97;100500.15;107235;1254;71918;-75
2023/08/16 08:30:26;;;;;;;8.80;7.40;;;;;;;30.03;55.84;100499.41;106766;1257;60469;-76
2023/08/16 08:32:57;;;;;;;9.90;8.10;;;;;;;30.13;55.51;100499.09;105628;1261;60436;-76
2023/08/16 08:35:25;;;;;;;7.90;7.00;;;;;;;30.22;55.18;100494.13;105884;1254;72637;-75
2023/08/16 08:37:52;;;;;;;9.50;7.10;;;;;;;30.33;55.30;100492.13;106044;1253;69202;-74
2023/08/16 08:40:20;;;;;;;8.90;8.00;;;;;;;30.47;55.10;100491.79;105641;1257;72667;-76
2023/08/16 08:42:47;;;;;;;10.00;8.30;;;;;;;30.66;54.48;100491.33;105435;1254;61165;-76
2023/08/16 08:45:15;;;;;;;7.80;7.00;;;;;;;30.86;53.92;100491.48;105373;1257;60781;-76
2023/08/16 08:47:45;;;;;;;10.60;7.50;;;;;;;31.00;54.48;100491.40;105339;1261;73852;-75
2023/08/16 08:50:13;;;;;;;12.20;8.00;;;;;;;31.13;53.33;100492.38;105536;1259;69500;-76
2023/08/16 08:52:41;;;;;;;7.70;6.90;;;;;;;31.25;53.02;100491.62;105418;1254;71755;-77
2023/08/16 08:55:08;;;;;;;7.10;6.40;;;;;;;31.39;52.70;100489.79;105821;1254;60488;-76
2023/08/16 08:57:36;;;;;;;8.20;6.60;;;;;;;31.55;52.11;100488.40;105911;1254;60441;-76
2023/08/16 09:00:04;;;;;;;8.00;6.10;;;;;;;31.70;51.18;100482.48;105288;1254;73859;-76
2023/08/16 09:02:33;;;;;;;7.70;7.00;;;;;;;31.81;50.32;100485.42;105880;1260;69196;-75
2023/08/16 09:05:04;;;;;;;9.80;7.50;;;;;;;31.94;50.21;100487.86;106546;1254;72720;-76
2023/08/16 09:07:33;;;;;;;7.70;6.50;;;;;;;32.11;49.79;100485.58;106996;1254;60526;-76
2023/08/16 09:10:00;;;;;;;7.70;6.90;;;;;;;32.29;49.98;100483.05;105858;1254;60688;-77
2023/08/16 09:12:28;;;;;;;8.10;6.70;;;;;;;32.49;49.67;100480.52;106102;1254;72453;-76
2023/08/16 09:14:55;;;;;;;6.80;6.10;;;;;;;32.75;48.94;100474.65;105842;1254;70815;-77
2023/08/16 09:17:23;;;;;;;8.20;6.60;;;;;;;33.07;48.67;100470.73;105331;1255;70744;-76
2023/08/16 09:19:51;;;;;;;7.50;6.70;;;;;;;33.45;48.29;100474.20;105866;1254;60490;-75
2023/08/16 09:22:18;;;;;;;9.00;6.70;;;;;;;33.91;47.68;100474.10;105902;1257;60290;-76
2023/08/16 09:24:46;;;;;;;8.20;6.50;;;;;;;34.50;46.87;100474.48;105666;1260;73878;-76
2023/08/16 09:27:13;;;;;;;8.80;6.20;;;;;;;35.02;45.79;100475.21;105380;1258;61415;-77
2023/08/16 09:29:41;;;;;;;6.10;5.50;;;;;;;35.52;44.74;100471.39;105723;1255;62697;-77
2023/08/16 09:32:09;;;;;;;7.50;5.60;;;;;;;35.97;43.80;100471.86;105728;1258;60316;-76
2023/08/16 09:34:43;;;;;;;6.40;5.70;;;;;;;36.42;42.84;100470.09;105711;1259;60444;-76
2023/08/16 09:37:15;;;;;;;6.60;5.60;;;;;;;36.85;41.87;100464.31;105549;1256;72953;-77
2023/08/16 09:39:42;;;;;;;4.90;4.40;;;;;;;37.25;41.26;100459.81;105909;1254;62518;-76
2023/08/16 09:42:10;;;;;;;6.10;4.70;;;;;;;37.75;40.41;100463.02;106367;1254;62462;-77
2023/08/16 09:44:40;;;;;;;5.50;5.10;;;;;;;38.27;39.21;100454.30;106287;1257;60461;-75
2023/08/16 09:47:14;;;;;;;6.40;5.00;;;;;;;38.71;38.74;100457.39;105643;1254;62225;-76
2023/08/16 09:49:49;;;;;;;6.70;4.60;;;;;;;39.07;38.01;100453.19;105951;1267;64982;-76
2023/08/16 09:52:16;;;;;;;5.70;5.10;;;;;;;39.38;37.49;100452.81;105817;1254;61537;-77
2023/08/16 09:54:48;;;;;;;7.10;4.90;;;;;;;39.66;36.86;100454.70;105840;1257;63925;-75
2023/08/16 09:57:16;;;;;;;6.50;4.50;;;;;;;39.92;36.52;100454.91;106001;1257;60484;-76
2023/08/16 09:59:46;;;;;;;5.20;4.80;;;;;;;40.15;36.20;100453.64;106044;1258;60456;-77
2023/08/16 10:02:14;;;;;;;7.20;4.70;;;;;;;40.41;35.51;100454.56;105520;1254;64949;-76
2023/08/16 10:04:42;;;;;;;5.00;4.60;;;;;;;40.68;35.30;100450.83;105904;1254;61425;-77
2023/08/16 10:07:12;;;;;;;6.10;4.80;;;;;;;40.85;34.80;100453.06;105388;1257;63704;-77
2023/08/16 10:09:41;;;;;;;5.40;4.90;;;;;;;40.96;34.91;100451.77;105810;1257;60450;-76
2023/08/16 10:12:10;;;;;;;5.30;4.90;;;;;;;41.19;34.59;100445.45;105480;1254;60612;-77
2023/08/16 10:14:40;;;;;;;7.20;4.70;;;;;;;41.42;34.44;100447.80;105904;1254;65005;-76
2023/08/16 10:17:08;;;;;;;5.20;4.70;;;;;;;41.64;34.22;100447.48;105825;1254;60719;-76
2023/08/16 10:19:37;;;;;;;4.60;4.20;;;;;;;41.89;33.73;100442.06;105749;1254;63831;-78
2023/08/16 10:22:23;;;;;;;5.30;4.50;;;;;;;42.03;33.61;100445.10;105876;1255;60538;-76
2023/08/16 10:24:54;;;;;;;4.60;4.10;;;;;;;42.20;33.25;100445.48;105525;1254;60473;-77
2023/08/16 10:27:21;;;;;;;6.60;4.20;;;;;;;42.36;32.94;100442.15;105800;1254;65026;-76
2023/08/16 10:29:51;;;;;;;5.40;3.90;;;;;;;42.61;32.81;100440.35;105923;1254;61308;-75
2023/08/16 10:32:19;;;;;;;5.40;4.20;;;;;;;42.88;32.40;100438.24;105462;1260;62470;-76
2023/08/16 10:34:49;;;;;;;5.20;4.20;;;;;;;43.11;32.25;100438.20;105955;1258;60446;-78
2023/08/16 10:37:17;;;;;;;5.20;4.50;;;;;;;43.28;31.98;100432.42;105863;1259;60409;-77
2023/08/16 10:39:49;;;;;;;4.70;4.20;;;;;;;43.41;31.91;100433.52;105942;1257;64939;-78
2023/08/16 10:42:38;;;;;;;4.80;4.30;;;;;;;43.61;31.55;100431.90;105948;1254;61536;-76
2023/08/16 10:45:06;;;;;;;4.00;3.70;;;;;;;43.69;31.49;100426.77;105949;1254;62431;-77
2023/08/16 10:47:34;;;;;;;5.10;4.30;;;;;;;43.83;31.34;100426.98;106170;1254;60466;-76
2023/08/16 10:50:03;;;;;;;6.40;4.50;;;;;;;44.00;31.12;100427.55;105478;1254;60540;-77
2023/08/16 10:52:32;;;;;;;4.20;3.80;;;;;;;44.25;30.99;100427.96;105916;1254;63701;-79
2023/08/16 10:55:00;;;;;;;5.80;4.70;;;;;;;44.44;30.74;100426.68;105865;1257;60306;-77
2023/08/16 10:57:27;;;;;;;6.10;4.30;;;;;;;44.61;30.59;100423.77;105893;1257;62513;-78
2023/08/16 11:00:05;;;;;;;4.40;4.00;;;;;;;44.82;30.19;100422.30;105816;1254;60463;-77
2023/08/16 11:02:35;;;;;;;6.80;4.60;;;;;;;45.09;29.96;100418.23;105187;1255;60523;-76
2023/08/16 11:05:04;;;;;;;4.30;3.90;;;;;;;45.22;29.54;100414.83;105622;1254;65384;-77
2023/08/16 11:07:32;;;;;;;5.00;4.50;;;;;;;45.21;29.53;100410.25;105736;1254;61579;-77
2023/08/16 11:10:02;;;;;;;6.20;5.10;;;;;;;45.22;29.50;100407.38;105995;1258;63742;-77
2023/08/16 11:12:30;;;;;;;4.90;4.40;;;;;;;45.37;29.24;100406.55;106667;1254;60336;-79
2023/08/16 11:14:58;;;;;;;4.30;3.90;;;;;;;45.52;28.99;100398.31;106977;1254;60457;-76